Time;durP1;ratioP1;P1;durP2;ratioP2;P2;SDS_P1;SDS_P2;PMS_P1;PMS_P2;Temp;Humidity;BMP_temperature;BMP_pressure;BME280_temperature;BME280_humidity;BME280_pressure;Samples;Min_cycle;Max_cycle;Signal;HPM_P1;HPM_P2
2022/12/20 07:01:53;;;;;;;8.13;5.78;;;5.60;99.90;;;;;;4882224;29;20045;-79
2022/12/20 07:04:20;;;;;;;9.77;5.85;;;5.60;99.90;;;;;;4899510;29;20429;-79
2022/12/20 07:06:47;;;;;;;15.43;6.07;;;5.60;99.90;;;;;;4896356;29;20091;-80
2022/12/20 07:09:13;;;;;;;11.25;6.80;;;5.60;99.90;;;;;;4876526;29;20053;-80
2022/12/20 07:11:42;;;;;;;11.48;6.60;;;5.50;99.90;;;;;;4904170;23;20157;-80
2022/12/20 07:14:09;;;;;;;9.50;6.03;;;5.50;99.90;;;;;;4918939;29;20051;-80
2022/12/20 07:16:36;;;;;;;11.20;6.18;;;5.50;99.90;;;;;;4918883;29;20101;-81
2022/12/20 07:19:03;;;;;;;16.67;8.45;;;5.50;99.90;;;;;;4922249;29;20070;-80
2022/12/20 07:21:30;;;;;;;11.48;6.22;;;5.50;99.90;;;;;;4916313;29;20083;-82
2022/12/20 07:23:57;;;;;;;10.85;5.90;;;5.50;99.90;;;;;;4910183;29;20101;-79
2022/12/20 07:26:24;;;;;;;10.35;6.35;;;5.50;99.90;;;;;;4911218;29;20040;-82
2022/12/20 07:28:51;;;;;;;10.18;5.55;;;5.50;99.90;;;;;;4906396;29;20471;-81
2022/12/20 07:31:18;;;;;;;7.28;5.18;;;5.50;99.90;;;;;;4915092;29;20063;-81
2022/12/20 07:33:45;;;;;;;17.38;6.55;;;5.50;99.90;;;;;;4916550;29;20060;-80
2022/12/20 07:36:12;;;;;;;10.00;5.80;;;5.50;99.90;;;;;;4913559;29;20052;-81
2022/12/20 07:38:39;;;;;;;10.65;5.97;;;5.50;99.90;;;;;;4917367;29;20079;-81
2022/12/20 07:41:12;;;;;;;13.48;7.35;;;5.50;99.90;;;;;;4907148;29;20121;-82
2022/12/20 07:43:38;;;;;;;11.23;6.00;;;5.60;99.90;;;;;;4917452;29;20143;-81
2022/12/20 07:46:06;;;;;;;13.45;7.00;;;5.60;99.90;;;;;;4905109;29;20109;-79
2022/12/20 07:48:34;;;;;;;15.27;8.25;;;5.60;99.90;;;;;;4919352;29;20107;-82
2022/12/20 07:51:09;;;;;;;16.23;8.50;;;5.60;99.90;;;;;;4911987;29;20056;-81
2022/12/20 07:53:41;;;;;;;24.88;12.98;;;5.60;99.90;;;;;;4916446;29;20068;-82
2022/12/20 07:56:09;;;;;;;18.23;9.85;;;5.60;99.90;;;;;;4905678;29;20432;-82
2022/12/20 07:58:38;;;;;;;18.08;9.35;;;5.70;99.90;;;;;;4930483;29;20435;-83
2022/12/20 08:01:06;;;;;;;13.73;7.70;;;5.70;99.90;;;;;;4906548;29;20424;-81
2022/12/20 08:03:45;;;;;;;15.20;7.88;;;5.70;99.90;;;;;;4914977;29;20056;-80
2022/12/20 08:06:14;;;;;;;12.55;7.35;;;5.80;99.90;;;;;;4911346;29;20045;-81
2022/12/20 08:08:46;;;;;;;13.15;6.97;;;5.70;99.90;;;;;;4915775;29;20059;-80
2022/12/20 08:11:13;;;;;;;14.20;7.35;;;5.80;99.90;;;;;;4919081;29;20053;-81
2022/12/20 08:13:40;;;;;;;11.30;7.28;;;5.80;99.90;;;;;;4916605;29;20095;-80
2022/12/20 08:16:12;;;;;;;17.95;10.40;;;5.80;99.90;;;;;;4909498;29;20048;-81
2022/12/20 08:18:39;;;;;;;14.30;9.02;;;5.80;99.90;;;;;;4921706;29;20063;-81
2022/12/20 08:21:06;;;;;;;19.15;10.82;;;5.90;99.90;;;;;;4914401;29;20048;-82
2022/12/20 08:23:34;;;;;;;16.02;10.30;;;5.90;99.90;;;;;;4919799;29;20131;-79
2022/12/20 08:26:01;;;;;;;17.17;10.25;;;5.90;99.90;;;;;;4915207;29;20742;-81
2022/12/20 08:28:27;;;;;;;15.82;10.00;;;5.90;99.90;;;;;;4916831;29;20071;-81
2022/12/20 08:31:02;;;;;;;22.60;13.07;;;6.00;99.90;;;;;;4913107;29;20056;-81
2022/12/20 08:33:31;;;;;;;24.85;15.75;;;6.00;99.90;;;;;;4911786;29;20152;-82
2022/12/20 08:35:59;;;;;;;18.48;10.65;;;6.00;99.90;;;;;;4911070;29;20052;-82
2022/12/20 08:38:27;;;;;;;18.58;12.27;;;6.10;99.90;;;;;;4914032;29;20060;-79
2022/12/20 08:40:54;;;;;;;20.08;12.48;;;6.10;99.90;;;;;;4912626;29;20072;-82
2022/12/20 08:43:21;;;;;;;25.88;14.43;;;6.10;99.90;;;;;;4915151;29;20052;-82
2022/12/20 08:45:53;;;;;;;22.83;14.20;;;6.20;99.90;;;;;;4906925;29;20059;-81
2022/12/20 08:48:21;;;;;;;24.98;13.05;;;6.20;99.90;;;;;;4913699;29;20052;-82
2022/12/20 08:50:54;;;;;;;17.83;10.73;;;6.20;99.90;;;;;;4912839;29;20067;-82
2022/12/20 08:53:22;;;;;;;17.42;10.23;;;6.20;99.90;;;;;;4911526;29;20517;-82
2022/12/20 08:55:49;;;;;;;21.27;11.52;;;6.20;99.90;;;;;;4904782;29;20113;-84
2022/12/20 08:58:16;;;;;;;16.70;10.15;;;6.30;99.90;;;;;;4905209;29;20108;-81
2022/12/20 09:00:43;;;;;;;17.80;10.40;;;6.30;99.90;;;;;;4905856;29;20426;-83
2022/12/20 09:03:12;;;;;;;18.13;10.20;;;6.40;99.90;;;;;;4907243;29;20108;-82
2022/12/20 09:05:45;;;;;;;21.33;10.95;;;6.40;99.90;;;;;;4909315;29;20048;-81
2022/12/20 09:08:13;;;;;;;16.35;9.80;;;6.50;99.90;;;;;;4902081;29;20060;-82
2022/12/20 09:10:40;;;;;;;18.83;11.38;;;6.60;99.90;;;;;;4913662;29;20128;-81
2022/12/20 09:13:07;;;;;;;13.75;8.98;;;6.60;99.90;;;;;;4897052;29;20135;-82
2022/12/20 09:15:34;;;;;;;16.88;10.05;;;6.60;99.90;;;;;;4912958;29;20044;-81
2022/12/20 09:18:02;;;;;;;18.83;10.65;;;6.70;99.90;;;;;;4904217;29;20048;-81
2022/12/20 09:20:29;;;;;;;18.05;9.88;;;6.70;99.90;;;;;;4899353;29;20082;-81
2022/12/20 09:22:58;;;;;;;17.05;9.90;;;6.70;99.90;;;;;;4900391;29;20044;-80
2022/12/20 09:25:26;;;;;;;16.35;10.35;;;6.80;99.90;;;;;;4910962;29;20413;-80
2022/12/20 09:27:55;;;;;;;18.40;11.25;;;6.80;99.90;;;;;;4897322;29;20048;-81
2022/12/20 09:30:22;;;;;;;18.08;10.00;;;6.90;99.90;;;;;;4908073;29;20119;-82
2022/12/20 09:32:49;;;;;;;21.20;12.50;;;6.90;99.90;;;;;;4904083;29;20052;-83
2022/12/20 09:35:16;;;;;;;18.15;12.13;;;6.90;99.90;;;;;;4910693;29;20163;-80
2022/12/20 09:37:48;;;;;;;17.95;9.82;;;6.90;99.90;;;;;;4904226;29;20498;-80
2022/12/20 09:40:18;;;;;;;16.67;10.48;;;6.90;99.90;;;;;;4906063;29;20048;-80
2022/12/20 09:42:47;;;;;;;17.02;10.45;;;7.00;99.90;;;;;;4906457;29;20060;-82
2022/12/20 09:45:27;;;;;;;20.67;13.57;;;7.00;99.90;;;;;;4900318;29;20047;-82
2022/12/20 09:47:54;;;;;;;18.13;10.85;;;7.00;99.90;;;;;;4917312;29;20074;-82
2022/12/20 09:50:39;;;;;;;18.10;10.85;;;7.00;99.90;;;;;;4913288;29;20125;-81
2022/12/20 09:53:43;;;;;;;15.20;9.77;;;7.10;99.90;;;;;;4899476;29;20049;-80
2022/12/20 09:56:27;;;;;;;17.38;11.38;;;7.10;99.90;;;;;;4909805;29;20100;-82
2022/12/20 09:59:00;;;;;;;17.13;10.75;;;7.10;99.90;;;;;;4905714;29;20091;-79
2022/12/20 10:01:29;;;;;;;17.60;11.18;;;7.20;99.90;;;;;;4904039;29;20053;-80
2022/12/20 10:04:28;;;;;;;44.22;23.85;;;7.20;99.90;;;;;;4905496;29;20127;-84
2022/12/20 10:07:14;;;;;;;28.00;12.75;;;7.20;99.90;;;;;;4907554;29;20049;-83
2022/12/20 10:10:02;;;;;;;20.83;11.10;;;7.20;99.90;;;;;;4892982;29;20080;-80
2022/12/20 10:13:12;;;;;;;20.83;12.27;;;7.30;99.90;;;;;;4895918;29;20481;-80
2022/12/20 10:16:04;;;;;;;36.75;20.95;;;7.30;99.90;;;;;;4902608;29;20060;-82
2022/12/20 10:18:41;;;;;;;17.23;10.05;;;7.40;99.90;;;;;;4904189;29;20594;-84
2022/12/20 10:21:17;;;;;;;19.23;11.13;;;7.40;99.90;;;;;;4909898;29;20087;-80
2022/12/20 10:24:01;;;;;;;18.08;10.38;;;7.40;99.90;;;;;;4906374;29;20080;-81
2022/12/20 10:26:29;;;;;;;18.58;9.75;;;7.40;99.90;;;;;;4908016;29;20049;-84
2022/12/20 10:28:56;;;;;;;18.33;9.93;;;7.40;99.90;;;;;;4900519;29;20049;-83
2022/12/20 10:31:24;;;;;;;16.88;9.00;;;7.50;99.90;;;;;;4907712;29;20076;-83
2022/12/20 10:33:50;;;;;;;16.73;8.63;;;7.60;99.90;;;;;;4904231;29;20112;-82
2022/12/20 10:36:20;;;;;;;14.98;9.30;;;7.60;99.90;;;;;;4909132;29;20051;-81
2022/12/20 10:38:53;;;;;;;12.30;8.25;;;7.70;99.90;;;;;;4905455;29;20055;-82
2022/12/20 10:41:29;;;;;;;14.93;8.23;;;7.80;99.90;;;;;;4909877;29;20048;-82
2022/12/20 10:44:15;;;;;;;16.20;8.70;;;7.80;99.90;;;;;;4902467;29;20045;-82
2022/12/20 10:46:46;;;;;;;14.18;8.23;;;7.90;99.90;;;;;;4904805;29;20088;-81
2022/12/20 10:49:35;;;;;;;12.23;8.13;;;8.00;99.90;;;;;;4899018;29;20049;-82
2022/12/20 10:52:11;;;;;;;12.35;7.13;;;8.10;99.90;;;;;;4904659;29;20128;-80
2022/12/20 10:54:38;;;;;;;12.15;7.32;;;8.10;99.90;;;;;;4907648;29;20085;-81
2022/12/20 10:57:20;;;;;;;16.00;8.00;;;8.20;99.90;;;;;;4908849;29;20049;-83
2022/12/20 11:00:04;;;;;;;14.63;8.20;;;8.30;99.90;;;;;;4921584;29;20056;-81
2022/12/20 11:02:30;;;;;;;12.48;7.50;;;8.30;99.90;;;;;;4914918;29;20096;-83
2022/12/20 11:05:09;;;;;;;11.98;6.80;;;8.40;99.90;;;;;;4912061;29;20054;-82
2022/12/20 11:07:50;;;;;;;15.48;9.23;;;8.40;99.90;;;;;;4910592;29;20126;-83
2022/12/20 11:10:37;;;;;;;13.52;8.88;;;8.50;99.90;;;;;;4902678;29;20525;-82
2022/12/20 11:13:04;;;;;;;14.23;9.07;;;8.50;99.90;;;;;;4909416;29;20056;-83
2022/12/20 11:15:35;;;;;;;13.00;8.60;;;8.50;99.90;;;;;;4908559;29;20099;-82
2022/12/20 11:18:15;;;;;;;12.48;8.48;;;8.60;99.90;;;;;;4901801;29;20053;-83
2022/12/20 11:20:53;;;;;;;16.67;9.00;;;8.60;99.90;;;;;;4902931;29;20120;-81
2022/12/20 11:23:40;;;;;;;15.45;9.63;;;8.60;99.90;;;;;;4906475;29;20048;-81
2022/12/20 11:26:28;;;;;;;16.65;9.02;;;8.60;99.90;;;;;;4908195;29;20131;-81
2022/12/20 11:29:22;;;;;;;16.05;8.65;;;8.70;99.90;;;;;;4908471;29;20045;-81
2022/12/20 11:32:15;;;;;;;16.52;9.55;;;8.70;99.90;;;;;;4915459;29;20056;-81
2022/12/20 11:34:57;;;;;;;20.65;12.77;;;8.70;99.90;;;;;;4919902;29;20139;-82
2022/12/20 11:37:26;;;;;;;17.48;11.35;;;8.70;99.90;;;;;;4913946;29;20048;-82
2022/12/20 11:40:29;;;;;;;18.95;11.45;;;8.70;99.90;;;;;;4914422;29;20055;-83
2022/12/20 11:43:26;;;;;;;20.83;12.05;;;8.70;99.90;;;;;;4913164;29;20494;-82
2022/12/20 11:46:24;;;;;;;18.67;11.13;;;8.70;99.90;;;;;;4901398;29;20199;-82
2022/12/20 11:49:19;;;;;;;21.75;13.68;;;8.80;99.90;;;;;;4908912;29;20051;-80
2022/12/20 11:51:51;;;;;;;22.80;14.75;;;8.90;99.90;;;;;;4904396;29;20192;-81
2022/12/20 11:54:28;;;;;;;14.68;9.20;;;8.90;99.90;;;;;;4902815;29;20111;-84
2022/12/20 11:57:08;;;;;;;15.00;9.10;;;8.90;99.90;;;;;;4903702;29;20060;-81
2022/12/20 11:59:51;;;;;;;13.93;8.45;;;9.00;99.90;;;;;;4917125;29;20057;-82
2022/12/20 12:02:35;;;;;;;14.55;9.18;;;9.10;99.90;;;;;;4908508;29;20048;-82
2022/12/20 12:05:27;;;;;;;16.25;9.20;;;9.10;99.90;;;;;;4905411;29;20041;-81
2022/12/20 12:08:03;;;;;;;17.10;10.80;;;9.20;99.90;;;;;;4907210;29;20052;-82
2022/12/20 12:10:34;;;;;;;17.00;9.65;;;9.20;99.90;;;;;;4904016;29;20057;-82
2022/12/20 12:13:20;;;;;;;18.38;10.07;;;9.10;99.90;;;;;;4911173;29;20490;-83
2022/12/20 12:15:57;;;;;;;21.10;11.93;;;9.10;99.90;;;;;;4906941;29;20083;-82
2022/12/20 12:18:32;;;;;;;21.20;13.80;;;9.10;99.90;;;;;;4910717;29;20061;-83
2022/12/20 12:21:12;;;;;;;24.23;15.43;;;9.10;99.90;;;;;;4906115;29;20071;-80
2022/12/20 12:23:42;;;;;;;28.67;15.85;;;9.10;99.90;;;;;;4914190;29;20083;-82
2022/12/20 12:26:33;;;;;;;25.27;16.17;;;9.00;99.90;;;;;;4909371;29;20395;-80
2022/12/20 12:29:04;;;;;;;24.13;14.13;;;9.10;99.90;;;;;;4911519;29;20057;-81
2022/12/20 12:31:52;;;;;;;24.17;13.73;;;9.10;99.90;;;;;;4906061;29;20081;-83
2022/12/20 12:34:42;;;;;;;25.63;14.48;;;9.10;99.90;;;;;;4908017;29;20056;-82
2022/12/20 12:37:34;;;;;;;26.80;16.60;;;9.20;99.90;;;;;;4898940;29;20135;-79
2022/12/20 12:40:39;;;;;;;31.35;18.27;;;9.20;99.90;;;;;;4904140;29;20052;-81
2022/12/20 12:43:46;;;;;;;30.27;16.45;;;9.20;99.90;;;;;;4913537;29;20067;-82
2022/12/20 12:46:22;;;;;;;23.83;14.20;;;9.30;99.90;;;;;;4901648;29;20049;-82
2022/12/20 12:49:10;;;;;;;27.58;15.20;;;9.50;99.90;;;;;;4909679;29;20072;-81
2022/12/20 12:51:41;;;;;;;19.73;11.77;;;9.60;99.90;;;;;;4903290;29;20052;-81
2022/12/20 12:54:08;;;;;;;25.10;12.02;;;9.60;99.90;;;;;;4914229;29;20509;-81
2022/12/20 12:56:45;;;;;;;16.90;10.52;;;9.70;99.90;;;;;;4905674;29;20056;-82
2022/12/20 12:59:40;;;;;;;23.15;14.48;;;9.80;99.90;;;;;;4914548;29;20056;-81
2022/12/20 13:02:12;;;;;;;26.67;14.93;;;9.90;99.90;;;;;;4905719;29;20495;-82
2022/12/20 13:05:01;;;;;;;21.92;12.68;;;9.90;99.90;;;;;;4913264;29;20052;-82
2022/12/20 13:07:38;;;;;;;19.30;9.35;;;10.00;99.90;;;;;;4908090;29;20079;-81
2022/12/20 13:10:08;;;;;;;9.35;5.43;;;10.10;99.90;;;;;;4909009;29;20054;-81
2022/12/20 13:12:35;;;;;;;6.78;3.72;;;10.20;99.90;;;;;;4919360;29;20062;-81
2022/12/20 13:15:22;;;;;;;5.32;3.28;;;10.30;99.90;;;;;;4911957;29;20441;-83
2022/12/20 13:18:19;;;;;;;4.70;2.15;;;10.40;99.90;;;;;;4910850;29;20485;-81
2022/12/20 13:21:24;;;;;;;2.75;1.80;;;10.60;99.90;;;;;;4903700;29;20056;-81
2022/12/20 13:24:30;;;;;;;3.63;2.22;;;10.60;99.90;;;;;;4912077;29;20055;-80
2022/12/20 13:26:58;;;;;;;5.05;2.85;;;10.80;99.90;;;;;;4920911;29;20415;-82
2022/12/20 13:29:35;;;;;;;3.58;2.28;;;10.90;99.90;;;;;;4913780;29;20054;-81
2022/12/20 13:32:22;;;;;;;3.85;1.88;;;10.90;99.90;;;;;;4888000;29;20060;-82
2022/12/20 13:34:57;;;;;;;3.92;1.73;;;11.00;99.90;;;;;;4911981;29;20084;-82
2022/12/20 13:37:27;;;;;;;3.75;1.77;;;11.10;99.90;;;;;;4902910;29;20072;-83
2022/12/20 13:39:55;;;;;;;1.88;1.58;;;11.10;99.90;;;;;;4913841;29;20084;-81
2022/12/20 13:42:33;;;;;;;2.10;1.45;;;11.10;99.90;;;;;;4905246;29;20049;-83
2022/12/20 13:45:03;;;;;;;4.68;2.00;;;11.20;99.90;;;;;;4911114;29;20080;-80
2022/12/20 13:47:47;;;;;;;6.03;2.85;;;11.30;99.90;;;;;;4905722;29;20055;-82
2022/12/20 13:50:31;;;;;;;7.90;3.60;;;11.30;99.90;;;;;;4907846;29;20052;-81
2022/12/20 13:52:58;;;;;;;13.65;7.00;;;11.30;99.90;;;;;;4904387;29;20064;-83
2022/12/20 13:55:35;;;;;;;35.92;17.15;;;11.30;99.90;;;;;;4913436;29;20082;-82
2022/12/20 13:58:11;;;;;;;75.80;32.90;;;11.30;99.90;;;;;;4906408;29;20151;-81
2022/12/20 14:00:39;;;;;;;77.38;34.33;;;11.30;99.90;;;;;;4907961;29;20052;-80
2022/12/20 14:03:16;;;;;;;81.68;33.75;;;11.30;99.90;;;;;;4905360;29;20075;-80
2022/12/20 14:05:43;;;;;;;84.75;36.03;;;11.40;99.90;;;;;;4913216;29;20048;-80
2022/12/20 14:08:21;;;;;;;89.95;36.88;;;11.40;99.90;;;;;;4908599;29;20053;-81
2022/12/20 14:10:50;;;;;;;86.45;37.53;;;11.40;99.90;;;;;;4910546;29;20459;-82
2022/12/20 14:13:20;;;;;;;90.90;35.90;;;11.30;99.90;;;;;;4906792;29;20164;-83
2022/12/20 14:15:47;;;;;;;77.63;35.17;;;11.30;99.90;;;;;;4911252;29;20084;-80
2022/12/20 14:18:16;;;;;;;72.60;32.60;;;11.30;99.90;;;;;;4907148;29;20135;-81
2022/12/20 14:20:45;;;;;;;57.30;24.20;;;11.90;99.90;;;;;;4910495;29;20052;-81
2022/12/20 14:23:24;;;;;;;40.67;17.98;;;11.20;99.90;;;;;;4903911;29;20083;-80
2022/12/20 14:26:00;;;;;;;30.58;12.10;;;11.20;99.90;;;;;;4904583;29;20108;-81
2022/12/20 14:28:30;;;;;;;26.65;12.52;;;11.20;99.90;;;;;;4904124;29;20045;-83
2022/12/20 14:30:59;;;;;;;18.40;7.70;;;11.20;99.90;;;;;;4908124;29;20493;-84
2022/12/20 14:33:33;;;;;;;13.38;5.68;;;11.20;99.90;;;;;;4903786;29;20057;-83
2022/12/20 14:36:15;;;;;;;13.25;5.20;;;11.30;99.90;;;;;;4904284;29;20687;-81
2022/12/20 14:38:44;;;;;;;7.25;4.03;;;11.30;99.90;;;;;;4925266;29;20179;-84
2022/12/20 14:41:31;;;;;;;8.48;3.83;;;11.30;99.90;;;;;;4913728;29;20631;-83
2022/12/20 14:44:19;;;;;;;5.32;2.78;;;11.30;99.90;;;;;;4907529;29;20044;-82
2022/12/20 14:46:53;;;;;;;7.32;2.50;;;11.30;99.90;;;;;;4904636;29;20049;-83
2022/12/20 14:49:30;;;;;;;7.22;3.20;;;11.30;99.90;;;;;;4919144;29;20047;-83
2022/12/20 14:52:26;;;;;;;5.55;2.47;;;11.30;99.90;;;;;;4915592;29;20048;-83
2022/12/20 14:55:05;;;;;;;5.75;3.15;;;11.30;99.90;;;;;;4911344;29;20529;-83
2022/12/20 14:57:35;;;;;;;3.95;2.38;;;11.30;99.90;;;;;;4932887;29;20076;-83
2022/12/20 15:00:17;;;;;;;5.38;3.17;;;11.30;99.90;;;;;;4915960;29;20055;-83
2022/12/20 15:02:57;;;;;;;5.22;3.00;;;11.30;99.90;;;;;;4908683;29;20052;-84
2022/12/20 15:05:34;;;;;;;6.25;3.55;;;11.30;99.90;;;;;;4908909;29;20056;-83
2022/12/20 15:08:44;;;;;;;8.25;3.20;;;11.30;99.90;;;;;;4903017;29;20053;-82
2022/12/20 15:11:21;;;;;;;7.10;3.42;;;11.20;99.90;;;;;;4912369;29;20475;-83
2022/12/20 15:13:53;;;;;;;7.45;4.32;;;11.20;99.90;;;;;;4925448;29;20056;-82
2022/12/20 15:16:25;;;;;;;7.63;4.50;;;11.10;99.90;;;;;;4912063;29;20060;-84
2022/12/20 15:18:55;;;;;;;8.88;4.78;;;11.00;99.90;;;;;;4905374;29;20080;-82
2022/12/20 15:21:39;;;;;;;7.67;4.20;;;11.00;99.90;;;;;;4905638;29;20063;-81
2022/12/20 15:24:20;;;;;;;12.15;6.85;;;11.00;99.90;;;;;;4900698;29;20040;-81
2022/12/20 15:26:48;;;;;;;16.23;8.05;;;10.90;99.90;;;;;;4911382;29;20059;-83
2022/12/20 15:29:17;;;;;;;16.88;8.45;;;10.90;99.90;;;;;;4907503;29;20047;-82
2022/12/20 15:31:45;;;;;;;13.95;7.93;;;10.90;99.90;;;;;;4906696;29;20045;-80
2022/12/20 15:34:29;;;;;;;16.55;10.43;;;10.80;99.90;;;;;;4903082;29;20115;-82
2022/12/20 15:36:58;;;;;;;24.73;13.52;;;10.70;99.90;;;;;;4899562;29;20132;-82
2022/12/20 15:39:26;;;;;;;20.40;11.68;;;10.70;99.90;;;;;;4903678;29;20052;-81
2022/12/20 15:41:53;;;;;;;29.27;16.17;;;10.50;99.90;;;;;;4897907;29;20124;-82
2022/12/20 15:44:26;;;;;;;29.90;15.75;;;10.60;99.90;;;;;;4899873;29;20044;-84
2022/12/20 15:46:54;;;;;;;25.23;14.77;;;10.60;99.90;;;;;;4902302;29;20045;-81
2022/12/20 15:49:23;;;;;;;22.98;12.38;;;10.60;99.90;;;;;;4905727;29;20128;-82
2022/12/20 15:51:52;;;;;;;16.98;9.75;;;10.60;99.90;;;;;;4904851;29;20417;-82
2022/12/20 15:54:26;;;;;;;16.10;8.07;;;10.60;99.90;;;;;;4905648;29;20140;-83
2022/12/20 15:56:54;;;;;;;10.02;5.85;;;10.50;99.90;;;;;;4907203;29;20056;-85
2022/12/20 15:59:21;;;;;;;8.90;5.20;;;10.50;99.90;;;;;;4902351;29;20105;-85
2022/12/20 16:02:21;;;;;;;12.63;6.13;;;10.50;99.90;;;;;;4902742;29;20071;-82
2022/12/20 16:04:49;;;;;;;14.93;8.20;;;10.40;99.90;;;;;;4905812;29;20045;-80
2022/12/20 16:07:16;;;;;;;11.25;6.82;;;10.40;99.90;;;;;;4910934;29;20047;-82
2022/12/20 16:09:43;;;;;;;10.90;6.40;;;10.40;99.90;;;;;;4900887;29;20065;-81
2022/12/20 16:12:40;;;;;;;11.57;7.05;;;10.40;99.90;;;;;;4908700;29;20405;-81
2022/12/20 16:15:21;;;;;;;15.95;7.55;;;10.30;99.90;;;;;;4887040;29;20053;-81
2022/12/20 16:17:48;;;;;;;13.75;6.55;;;10.30;99.90;;;;;;4908096;29;20210;-81
2022/12/20 16:20:15;;;;;;;11.45;6.50;;;10.20;99.90;;;;;;4903908;29;20127;-80
2022/12/20 16:22:41;;;;;;;9.73;5.63;;;10.20;99.90;;;;;;4901841;29;20488;-83
2022/12/20 16:25:24;;;;;;;14.00;6.55;;;10.20;99.90;;;;;;4900068;29;20079;-84
2022/12/20 16:27:51;;;;;;;11.15;5.72;;;10.10;99.90;;;;;;4907875;29;20044;-81
2022/12/20 16:30:18;;;;;;;12.63;6.15;;;10.00;99.90;;;;;;4899024;29;20048;-84
2022/12/20 16:32:44;;;;;;;11.35;6.13;;;10.10;99.90;;;;;;4905521;29;20139;-85
2022/12/20 16:35:23;;;;;;;12.30;7.07;;;10.10;99.90;;;;;;4904844;29;20071;-83
2022/12/20 16:37:49;;;;;;;13.88;8.65;;;10.00;99.90;;;;;;4907292;29;20052;-83
2022/12/20 16:40:16;;;;;;;12.60;7.82;;;10.00;99.90;;;;;;4905109;29;20127;-83
2022/12/20 16:42:43;;;;;;;10.45;7.25;;;10.00;99.90;;;;;;4909593;29;20082;-84
2022/12/20 16:45:19;;;;;;;8.23;5.75;;;9.90;99.90;;;;;;4905794;29;20045;-83
2022/12/20 16:47:47;;;;;;;10.30;6.70;;;9.90;99.90;;;;;;4907825;29;21550;-83
2022/12/20 16:50:18;;;;;;;13.10;6.63;;;9.90;99.90;;;;;;4902612;29;20055;-82
2022/12/20 16:52:46;;;;;;;11.20;6.18;;;9.90;99.90;;;;;;4913279;29;20103;-83
2022/12/20 16:55:25;;;;;;;11.90;5.97;;;9.90;99.90;;;;;;4908234;29;20056;-82
2022/12/20 16:57:53;;;;;;;8.25;5.45;;;9.80;99.90;;;;;;4911583;29;20077;-83
2022/12/20 17:00:25;;;;;;;9.48;5.95;;;9.80;99.90;;;;;;4916634;29;20048;-82
2022/12/20 17:02:52;;;;;;;10.80;6.45;;;9.70;99.90;;;;;;4915007;29;20052;-81
2022/12/20 17:05:31;;;;;;;8.00;4.95;;;9.70;99.90;;;;;;4909145;29;20055;-81
2022/12/20 17:07:58;;;;;;;10.02;5.35;;;9.70;99.90;;;;;;4908436;29;20127;-82
2022/12/20 17:10:26;;;;;;;8.10;5.25;;;9.60;99.90;;;;;;4902805;29;20128;-82
2022/12/20 17:12:53;;;;;;;11.48;7.07;;;9.60;99.90;;;;;;4907937;29;20135;-80
2022/12/20 17:15:28;;;;;;;9.77;6.40;;;9.60;99.90;;;;;;4907453;29;20147;-82
2022/12/20 17:17:55;;;;;;;15.45;7.70;;;9.60;99.90;;;;;;4905660;29;20080;-82
2022/12/20 17:20:23;;;;;;;12.85;7.88;;;9.60;99.90;;;;;;4907524;29;20048;-81
2022/12/20 17:22:53;;;;;;;13.82;7.97;;;9.60;99.90;;;;;;4911727;29;20073;-81
2022/12/20 17:25:37;;;;;;;13.57;6.40;;;9.60;99.90;;;;;;4908368;29;20060;-82
2022/12/20 17:28:05;;;;;;;20.50;12.70;;;9.60;99.90;;;;;;4905187;29;20565;-79
2022/12/20 17:30:31;;;;;;;30.13;16.75;;;9.50;99.90;;;;;;4903046;29;20048;-81
2022/12/20 17:32:58;;;;;;;18.95;12.05;;;9.50;99.90;;;;;;4913903;29;20051;-80
2022/12/20 17:35:29;;;;;;;20.65;11.23;;;9.50;99.90;;;;;;4906694;29;20163;-80
2022/12/20 17:37:56;;;;;;;18.33;10.75;;;9.50;99.90;;;;;;4901145;29;20068;-82
2022/12/20 17:40:25;;;;;;;16.58;9.15;;;9.50;99.90;;;;;;4908811;29;20139;-80
2022/12/20 17:42:52;;;;;;;16.23;10.82;;;9.50;99.90;;;;;;4908673;29;20076;-81
2022/12/20 17:45:22;;;;;;;15.45;9.98;;;9.40;99.90;;;;;;4905918;29;20063;-79
2022/12/20 17:47:49;;;;;;;22.27;10.93;;;9.40;99.90;;;;;;4901184;29;20518;-81
2022/12/20 17:50:16;;;;;;;15.50;9.60;;;9.40;99.90;;;;;;4904885;29;20920;-82
2022/12/20 17:52:47;;;;;;;17.38;8.77;;;9.40;99.90;;;;;;4907798;29;20168;-81
2022/12/20 17:55:15;;;;;;;;;;;9.40;99.90;;;;;;4906691;29;20482;-79
2022/12/20 17:57:42;;;;;;;23.95;12.15;;;9.40;99.90;;;;;;4908891;29;19923;-79
2022/12/20 18:00:21;;;;;;;41.03;20.42;;;9.40;99.90;;;;;;4906934;29;20048;-81
2022/12/20 18:02:48;;;;;;;31.55;17.92;;;9.40;99.90;;;;;;4901171;29;20064;-80
2022/12/20 18:05:15;;;;;;;38.25;19.13;;;9.40;99.90;;;;;;4909583;29;20527;-82
2022/12/20 18:07:42;;;;;;;21.92;12.38;;;9.40;99.90;;;;;;4911000;29;20086;-80
2022/12/20 18:10:09;;;;;;;33.25;19.80;;;9.40;99.90;;;;;;4922282;29;20135;-80
2022/12/20 18:12:37;;;;;;;30.73;15.32;;;9.40;99.90;;;;;;4910493;29;20079;-81
2022/12/20 18:15:06;;;;;;;23.15;11.55;;;9.40;99.90;;;;;;4908582;29;20055;-79
2022/12/20 18:17:33;;;;;;;19.98;10.95;;;9.40;99.90;;;;;;4917446;29;20080;-81
2022/12/20 18:20:00;;;;;;;17.75;9.98;;;9.40;99.90;;;;;;4910212;29;20547;-82
2022/12/20 18:22:26;;;;;;;15.68;8.73;;;9.30;99.90;;;;;;4910237;29;20128;-80
2022/12/20 18:24:53;;;;;;;16.90;10.30;;;9.30;99.90;;;;;;4931206;29;20047;-79
2022/12/20 18:27:20;;;;;;;16.05;9.00;;;9.30;99.90;;;;;;4907496;29;20755;-81
2022/12/20 18:29:56;;;;;;;18.35;10.13;;;9.30;99.90;;;;;;4907280;29;20055;-81
2022/12/20 18:32:23;;;;;;;16.10;10.18;;;9.30;99.90;;;;;;4905000;29;20084;-81
2022/12/20 18:34:50;;;;;;;17.17;9.70;;;9.30;99.90;;;;;;4912721;29;20052;-81
2022/12/20 18:37:17;;;;;;;20.60;8.38;;;9.30;99.90;;;;;;4912874;29;20053;-82
2022/12/20 18:39:44;;;;;;;18.98;9.02;;;9.30;99.90;;;;;;4906727;29;20488;-79
2022/12/20 18:42:10;;;;;;;15.82;8.02;;;9.30;99.90;;;;;;4909322;29;20087;-80
2022/12/20 18:44:37;;;;;;;14.95;7.57;;;9.30;99.90;;;;;;4911436;29;20051;-82
2022/12/20 18:47:04;;;;;;;15.95;8.60;;;9.30;99.90;;;;;;4911167;29;20058;-81
2022/12/20 18:49:30;;;;;;;13.80;7.45;;;9.30;99.90;;;;;;4915840;29;20119;-79
2022/12/20 18:51:59;;;;;;;13.43;8.65;;;9.30;99.90;;;;;;4909098;29;20044;-81
2022/12/20 18:54:26;;;;;;;12.02;6.43;;;9.20;99.90;;;;;;4910804;29;20052;-82
2022/12/20 18:56:52;;;;;;;15.65;7.22;;;9.20;99.90;;;;;;4910647;29;20820;-81
2022/12/20 18:59:20;;;;;;;9.50;7.00;;;9.20;99.90;;;;;;4910399;29;20068;-81
2022/12/20 19:01:47;;;;;;;11.73;7.25;;;9.20;99.90;;;;;;4913009;29;20071;-80
2022/12/20 19:04:14;;;;;;;12.65;6.07;;;9.20;99.90;;;;;;4917495;29;20056;-81
2022/12/20 19:06:49;;;;;;;11.32;7.65;;;9.20;99.90;;;;;;4912646;29;20048;-81
2022/12/20 19:09:16;;;;;;;9.25;6.38;;;9.20;99.90;;;;;;4912126;29;20049;-81
2022/12/20 19:11:43;;;;;;;12.38;5.80;;;9.10;99.90;;;;;;4914959;29;20434;-82
2022/12/20 19:14:11;;;;;;;10.90;5.90;;;9.10;99.90;;;;;;4914632;29;20131;-80
2022/12/20 19:16:38;;;;;;;10.55;7.28;;;9.10;99.90;;;;;;4910414;29;20057;-81
2022/12/20 19:19:07;;;;;;;9.23;6.55;;;9.10;99.90;;;;;;4904805;29;20056;-82
2022/12/20 19:21:36;;;;;;;11.57;6.25;;;9.10;99.90;;;;;;4911336;29;20057;-81
2022/12/20 19:24:05;;;;;;;11.38;7.18;;;9.10;99.90;;;;;;4918775;29;20044;-80
2022/12/20 19:26:33;;;;;;;11.18;6.10;;;9.10;99.90;;;;;;4918123;29;20053;-79
2022/12/20 19:29:02;;;;;;;7.70;5.88;;;9.10;99.90;;;;;;4918468;29;20074;-81
2022/12/20 19:31:31;;;;;;;11.35;6.32;;;9.10;99.90;;;;;;4906998;29;20048;-81
2022/12/20 19:34:16;;;;;;;9.02;5.68;;;9.20;99.90;;;;;;4912417;29;20104;-81
2022/12/20 19:36:44;;;;;;;16.27;9.77;;;9.20;99.90;;;;;;4915642;29;20076;-79
2022/12/20 19:39:18;;;;;;;9.48;6.45;;;9.20;99.90;;;;;;4910785;29;20054;-81
2022/12/20 19:41:46;;;;;;;11.07;7.10;;;9.20;99.90;;;;;;4916512;29;20094;-79
2022/12/20 19:44:32;;;;;;;17.00;9.00;;;9.20;99.90;;;;;;4915336;29;20052;-82
2022/12/20 19:46:59;;;;;;;14.60;9.48;;;9.20;99.90;;;;;;4916437;29;20060;-81
2022/12/20 19:49:34;;;;;;;15.73;9.20;;;9.20;99.90;;;;;;4910236;29;20085;-81
2022/12/20 19:52:01;;;;;;;14.40;9.30;;;9.20;99.90;;;;;;4920381;29;20056;-81
2022/12/20 19:54:28;;;;;;;12.68;7.53;;;9.20;99.90;;;;;;4913402;29;20048;-79
2022/12/20 19:56:57;;;;;;;11.55;7.57;;;9.20;99.90;;;;;;4926329;29;20052;-81
2022/12/20 19:59:24;;;;;;;11.98;7.28;;;9.20;99.90;;;;;;4909090;29;20093;-80
2022/12/20 20:01:51;;;;;;;10.20;6.32;;;9.20;99.90;;;;;;4915328;29;20052;-78
2022/12/20 20:04:18;;;;;;;13.00;7.60;;;9.20;99.90;;;;;;4912870;29;20469;-80
2022/12/20 20:06:45;;;;;;;10.82;6.97;;;9.20;99.90;;;;;;4910920;29;20068;-78
2022/12/20 20:09:11;;;;;;;11.60;7.95;;;9.20;99.90;;;;;;4903956;29;20048;-81
2022/12/20 20:11:38;;;;;;;16.90;7.30;;;9.20;99.90;;;;;;4915599;29;20421;-79
2022/12/20 20:14:08;;;;;;;11.38;6.40;;;9.20;99.90;;;;;;4905694;29;20055;-80
2022/12/20 20:16:36;;;;;;;10.23;6.18;;;9.30;99.90;;;;;;4910740;29;20080;-78